Time;durP1;ratioP1;P1;durP2;ratioP2;P2;SDS_P1;SDS_P2;PMS_P1;PMS_P2;Temp;Humidity;BMP_temperature;BMP_pressure;BME280_temperature;BME280_humidity;BME280_pressure;Samples;Min_cycle;Max_cycle;Signal;HPM_P1;HPM_P2
2023/12/06 00:01:27;;;;;;;0.73;0.40;;;;;;;;;;20958544;28;20224;-72
2023/12/06 00:11:30;;;;;;;0.50;0.40;;;;;;;;;;20973529;28;20271;-72
2023/12/06 00:21:31;;;;;;;0.53;0.50;;;;;;;;;;20950522;28;20217;-72
2023/12/06 00:31:33;;;;;;;0.60;0.50;;;;;;;;;;20956094;28;20225;-71
2023/12/06 00:41:35;;;;;;;0.97;0.50;;;;;;;;;;20955474;28;20267;-72
2023/12/06 00:51:37;;;;;;;0.30;0.30;;;;;;;;;;20954087;28;20266;-72
2023/12/06 01:01:39;;;;;;;0.70;0.40;;;;;;;;;;20969495;28;20225;-72
2023/12/06 01:11:41;;;;;;;0.70;0.40;;;;;;;;;;20952644;28;20572;-72
2023/12/06 01:21:45;;;;;;;0.50;0.40;;;3.80;99.90;;;;;;20935021;28;20213;-71
2023/12/06 01:31:47;;;;;;;0.70;0.50;;;;;;;;;;20957804;28;20213;-72
2023/12/06 01:41:51;;;;;;;0.50;0.43;;;;;;;;;;20982625;28;20229;-72
2023/12/06 01:51:52;;;;;;;0.50;0.40;;;;;;;;;;20935428;28;20213;-72
2023/12/06 02:01:54;;;;;;;0.43;0.40;;;;;;;;;;20968639;28;20224;-72
2023/12/06 02:11:56;;;;;;;0.40;0.40;;;;;;;;;;20934096;28;20213;-72
2023/12/06 02:21:59;;;;;;;0.60;0.50;;;3.90;99.90;;;;;;20952247;28;20213;-72
2023/12/06 02:32:01;;;;;;;0.30;0.27;;;;;;;;;;20952928;28;20205;-71
2023/12/06 02:42:03;;;;;;;0.13;0.13;;;;;;;;;;20966077;28;20274;-71
2023/12/06 02:52:04;;;;;;;0.40;0.40;;;;;;;;;;20965365;28;20212;-71
2023/12/06 03:02:07;;;;;;;0.30;0.30;;;;;;;;;;20964303;28;20314;-71
2023/12/06 03:12:08;;;;;;;2.00;0.30;;;;;;;;;;20954142;28;20239;-72
2023/12/06 03:22:11;;;;;;;0.33;0.23;;;;;;;;;;20962552;28;20641;-72
2023/12/06 03:32:12;;;;;;;0.90;0.40;;;;;;;;;;20939352;28;20213;-71
2023/12/06 03:42:15;;;;;;;0.87;0.70;;;;;;;;;;20975399;28;20224;-71
2023/12/06 03:52:16;;;;;;;0.73;0.40;;;;;;;;;;20935308;28;20691;-71
2023/12/06 04:02:18;;;;;;;1.40;0.50;;;;;;;;;;20939685;28;20583;-71
2023/12/06 04:12:20;;;;;;;0.23;0.20;;;;;;;;;;20975227;28;20934;-71
2023/12/06 04:22:22;;;;;;;0.43;0.30;;;;;;;;;;20968501;28;20251;-72
2023/12/06 04:32:30;;;;;;;0.33;0.30;;;;;;;;;;20970382;28;20239;-72
2023/12/06 04:42:32;;;;;;;0.90;0.27;;;;;;;;;;20967184;28;20221;-71
2023/12/06 04:52:35;;;;;;;0.37;0.30;;;;;;;;;;20960738;28;20708;-71
2023/12/06 05:02:37;;;;;;;1.70;0.27;;;;;;;;;;20954177;28;20630;-71
2023/12/06 05:12:38;;;;;;;0.57;0.40;;;;;;;;;;20951255;28;20213;-71
2023/12/06 05:22:40;;;;;;;0.73;0.50;;;;;;;;;;20952462;28;20216;-71
2023/12/06 05:32:42;;;;;;;0.67;0.50;;;;;;;;;;20928306;28;20824;-71
2023/12/06 05:42:44;;;;;;;0.90;0.70;;;;;;;;;;20965633;28;20305;-71
2023/12/06 05:52:45;;;;;;;1.83;1.00;;;;;;;;;;20952348;28;20274;-71
2023/12/06 06:02:48;;;;;;;0.97;0.67;;;;;;;;;;20980614;28;20254;-71
2023/12/06 06:12:49;;;;;;;1.87;1.00;;;;;;;;;;20982852;28;20208;-71
2023/12/06 06:22:51;;;;;;;1.33;0.90;;;;;;;;;;20959355;22;20251;-87
2023/12/06 06:32:53;;;;;;;1.33;1.03;;;;;;;;;;20950762;28;20353;-87
2023/12/06 06:42:55;;;;;;;2.10;1.10;;;;;;;;;;20965622;28;20221;-87
2023/12/06 06:52:59;;;;;;;1.40;1.10;;;;;;;;;;20957181;28;21819;-88
2023/12/06 07:03:00;;;;;;;2.13;1.10;;;;;;;;;;20944323;28;20225;-87
2023/12/06 07:13:02;;;;;;;1.33;0.67;;;;;;;;;;20984063;28;20221;-88
2023/12/06 07:23:04;;;;;;;1.77;1.10;;;;;;;;;;20969464;28;20251;-87
2023/12/06 07:33:07;;;;;;;1.10;0.70;;;;;;;;;;20994390;28;20216;-88
2023/12/06 07:43:09;;;;;;;1.23;0.70;;;;;;;;;;20975168;28;20698;-88
2023/12/06 07:53:12;;;;;;;1.70;1.00;;;;;;;;;;20960070;28;20210;-88
2023/12/06 08:03:14;;;;;;;1.97;1.30;;;;;;;;;;20936523;28;20718;-88
2023/12/06 08:13:15;;;;;;;1.40;1.10;;;;;;;;;;21007704;28;20274;-87
2023/12/06 08:23:17;;;;;;;2.10;1.10;;;;;;;;;;20959132;28;20220;-88
2023/12/06 08:33:19;;;;;;;1.80;1.07;;;;;;;;;;20990298;28;20213;-89
2023/12/06 08:43:21;;;;;;;1.73;1.17;;;;;;;;;;20964679;28;20666;-88
2023/12/06 08:53:23;;;;;;;1.03;0.93;;;;;;;;;;20987419;28;20217;-88
2023/12/06 09:03:24;;;;;;;1.50;1.20;;;;;;;;;;20958601;28;20221;-88
2023/12/06 09:23:40;;;;;;;3.03;1.50;;;4.40;99.90;;;;;;20947658;27;20578;-69
2023/12/06 09:33:43;;;;;;;2.30;1.50;;;;;;;;;;20907370;28;20210;-69
2023/12/06 09:43:44;;;;;;;2.27;1.37;;;;;;;;;;20882701;28;20205;-70
2023/12/06 09:53:46;;;;;;;1.93;1.30;;;;;;;;;;20874716;28;20299;-70
2023/12/06 10:03:49;;;;;;;1.80;1.10;;;;;;;;;;20857383;28;20562;-69
2023/12/06 10:13:51;;;;;;;2.60;1.80;;;;;;;;;;20885194;28;20214;-69
2023/12/06 10:23:58;;;;;;;1.43;0.90;;;4.40;99.90;;;;;;20890190;28;20210;-70
2023/12/06 10:34:00;;;;;;;1.97;1.13;;;;;;;;;;20817823;28;20230;-69
2023/12/06 10:44:03;;;;;;;1.93;1.10;;;;;;;;;;20830285;28;20624;-69
2023/12/06 10:54:07;;;;;;;1.77;1.07;;;4.80;99.90;;;;;;20797648;28;20214;-68
2023/12/06 11:04:09;;;;;;;2.20;1.40;;;;;;;;;;20814499;28;20276;-69
2023/12/06 11:14:17;;;;;;;2.13;1.10;;;;;;;;;;20868031;28;20288;-70
2023/12/06 11:24:20;;;;;;;1.57;1.00;;;4.80;99.90;;;;;;20844186;28;20275;-69
2023/12/06 11:34:30;;;;;;;1.20;0.87;;;;;;;;;;20841811;28;20268;-69
2023/12/06 11:44:32;;;;;;;1.67;1.20;;;;;;;;;;20807778;28;20248;-69
2023/12/06 11:54:34;;;;;;;2.23;1.67;;;;;;;;;;20816170;28;20300;-68
2023/12/06 12:04:36;;;;;;;3.50;2.50;;;;;;;;;;20833763;28;20218;-68
2023/12/06 12:14:38;;;;;;;1.73;0.97;;;;;;;;;;20809054;28;20210;-69
2023/12/06 12:24:41;;;;;;;2.20;1.33;;;;;;;;;;20780352;23;20246;-70
2023/12/06 12:34:43;;;;;;;2.50;1.30;;;;;;;;;;20638625;28;20195;-70
2023/12/06 12:44:45;;;;;;;2.57;1.10;;;;;;;;;;20625295;28;20219;-70
2023/12/06 12:54:47;;;;;;;1.63;0.93;;;;;;;;;;20671802;28;20207;-70
2023/12/06 13:04:49;;;;;;;2.67;1.33;;;;;;;;;;20672864;28;20579;-70
2023/12/06 13:14:51;;;;;;;2.93;1.50;;;;;;;;;;20618583;28;20207;-70
2023/12/06 13:24:53;;;;;;;2.57;1.40;;;;;;;;;;20641189;28;20267;-69
2023/12/06 13:34:55;;;;;;;2.10;1.40;;;;;;;;;;20640399;28;20254;-69
2023/12/06 13:44:57;;;;;;;1.83;1.00;;;;;;;;;;20661196;28;20224;-69
2023/12/06 13:54:59;;;;;;;1.57;1.17;;;;;;;;;;20647736;28;20944;-70
2023/12/06 14:05:01;;;;;;;1.77;1.37;;;;;;;;;;20661467;28;20289;-70
2023/12/06 14:15:03;;;;;;;2.77;1.50;;;;;;;;;;20674796;28;20224;-70
2023/12/06 14:25:05;;;;;;;2.30;1.20;;;;;;;;;;20651075;28;20224;-69
2023/12/06 14:35:11;;;;;;;2.43;1.30;;;4.80;99.90;;;;;;20658768;28;20224;-70
2023/12/06 14:45:13;;;;;;;1.37;0.90;;;;;;;;;;20660607;28;20249;-69
2023/12/06 14:55:14;;;;;;;1.13;0.70;;;;;;;;;;20660825;28;20270;-69
2023/12/06 15:05:16;;;;;;;1.67;1.10;;;;;;;;;;20652033;28;20236;-70
2023/12/06 15:15:18;;;;;;;2.57;1.20;;;;;;;;;;20646829;28;20273;-70
2023/12/06 15:25:20;;;;;;;1.00;0.80;;;;;;;;;;20653203;28;20228;-70
2023/12/06 15:35:22;;;;;;;2.57;1.00;;;;;;;;;;20684891;28;20231;-70
2023/12/06 15:45:29;;;;;;;3.10;1.00;;;;;;;;;;20679142;28;20536;-70
2023/12/06 15:55:32;;;;;;;0.70;0.70;;;;;;;;;;20655655;28;20298;-70
2023/12/06 16:05:34;;;;;;;1.90;1.13;;;;;;;;;;20675987;28;20231;-70
2023/12/06 16:15:36;;;;;;;2.93;1.50;;;;;;;;;;20659105;28;20299;-69
2023/12/06 16:25:38;;;;;;;18.87;9.60;;;;;;;;;;20642716;28;20223;-69
2023/12/06 16:35:42;;;;;;;5.30;3.47;;;;;;;;;;20638005;28;20266;-69
2023/12/06 16:45:44;;;;;;;14.20;7.77;;;;;;;;;;20655763;28;20281;-69
2023/12/06 16:55:46;;;;;;;43.37;22.43;;;;;;;;;;20637580;28;20215;-69
2023/12/06 17:05:48;;;;;;;26.17;14.23;;;;;;;;;;20654762;28;20642;-69
2023/12/06 17:15:53;;;;;;;16.43;9.17;;;;;;;;;;20637155;28;20243;-69
2023/12/06 17:25:56;;;;;;;3.17;2.40;;;;;;;;;;20658991;28;20231;-69
2023/12/06 17:35:58;;;;;;;1.93;1.10;;;;;;;;;;20622126;28;20274;-69
2023/12/06 17:46:00;;;;;;;2.00;1.33;;;;;;;;;;20658795;28;20358;-69
2023/12/06 17:56:03;;;;;;;3.47;1.63;;;;;;;;;;20667319;28;20255;-69
2023/12/06 18:06:04;;;;;;;1.77;0.87;;;;;;;;;;20639943;28;20302;-69
2023/12/06 18:16:07;;;;;;;1.40;1.00;;;;;;;;;;20607799;28;20211;-69
2023/12/06 18:26:08;;;;;;;1.37;1.00;;;;;;;;;;20661758;28;20220;-69
2023/12/06 18:36:10;;;;;;;1.77;1.07;;;;;;;;;;20724072;23;20235;-86
2023/12/06 18:46:15;;;;;;;2.13;1.30;;;;;;;;;;20750887;28;20258;-87
2023/12/06 18:56:16;;;;;;;4.27;1.77;;;;;;;;;;20724310;28;20219;-86
2023/12/06 19:06:19;;;;;;;2.20;1.40;;;;;;;;;;20737400;28;20223;-86
2023/12/06 19:16:21;;;;;;;3.70;2.00;;;;;;;;;;20667859;28;20215;-88
2023/12/06 19:26:23;;;;;;;3.10;2.07;;;;;;;;;;20732206;28;20220;-88
2023/12/06 19:36:25;;;;;;;2.80;1.83;;;;;;;;;;20697693;28;20553;-87
2023/12/06 19:46:27;;;;;;;2.23;1.13;;;;;;;;;;20731353;28;20261;-88
2023/12/06 19:56:29;;;;;;;3.10;1.67;;;;;;;;;;20676777;28;20215;-86
2023/12/06 20:06:31;;;;;;;2.40;1.40;;;;;;;;;;20714174;28;20223;-87
2023/12/06 20:16:32;;;;;;;2.27;1.63;;;;;;;;;;20724826;28;20219;-85
2023/12/06 20:26:34;;;;;;;2.53;1.70;;;;;;;;;;20747538;28;20277;-87
2023/12/06 20:36:36;;;;;;;2.83;2.00;;;;;;;;;;20688298;28;20238;-86
2023/12/06 20:46:38;;;;;;;3.10;2.20;;;;;;;;;;20723662;28;20242;-86
